Time,TemperatureF,DewpointF,PressureIn,WindDirection,WindDirectionDegrees,WindSpeedMPH,WindSpeedGustMPH,Humidity,HourlyPrecipIn,Conditions,Clouds,dailyrainin,SolarRadiationWatts/m^2,SoftwareType,DateUTC
2013-03-15 00:01:00,25.6,17.2,30.17,WSW,239,1.0,1.0,70,0.00,,,0.00,0,Wunderground v.1.15,2013-03-15 04:01:00,
2013-03-15 00:02:00,25.5,17.4,30.17,WSW,252,1.0,1.0,71,0.00,,,0.00,0,Wunderground v.1.15,2013-03-15 04:02:00,
2013-03-15 00:04:00,25.4,17.3,30.17,WNW,294,1.0,2.0,71,0.00,,,0.00,0,Wunderground v.1.15,2013-03-15 04:04:00,
2013-03-15 00:08:00,25.5,17.4,30.17,WNW,294,1.0,2.0,71,0.00,,,0.00,0,Wunderground v.1.15,2013-03-15 04:08:00,
2013-03-15 00:14:00,25.2,17.1,30.17,West,263,1.0,1.0,71,0.00,,,0.00,0,Wunderground v.1.15,2013-03-15 04:14:00,
2013-03-15 00:20:00,25.2,17.4,30.17,WNW,283,1.0,2.0,72,0.00,,,0.00,0,Wunderground v.1.15,2013-03-15 04:20:00,
2013-03-15 00:26:00,25.1,17.3,30.17,West,274,1.0,2.0,72,0.00,,,0.00,0,Wunderground v.1.15,2013-03-15 04:26:00,
2013-03-15 00:32:00,24.9,17.5,30.17,West,274,0.0,1.0,73,0.00,,,0.00,0,Wunderground v.1.15,2013-03-15 04:32:00,
2013-03-15 00:38:00,24.7,17.3,30.17,NW,323,1.0,3.0,73,0.00,,,0.00,0,Wunderground v.1.15,2013-03-15 04:38:00,
2013-03-15 00:44:00,24.5,17.4,30.16,West,269,1.0,3.0,74,0.00,,,0.00,0,Wunderground v.1.15,2013-03-15 04:44:00,
2013-03-15 00:50:00,24.5,17.4,30.16,WNW,290,1.0,3.0,74,0.00,,,0.00,0,Wunderground v.1.15,2013-03-15 04:50:00,
2013-03-15 00:56:00,24.5,17.4,30.16,NW,311,1.0,3.0,74,0.00,,,0.00,0,Wunderground v.1.15,2013-03-15 04:56:00,
2013-03-15 01:02:00,24.3,17.5,30.16,WNW,293,1.0,3.0,75,0.00,,,0.00,0,Wunderground v.1.15,2013-03-15 05:02:00,
2013-03-15 01:08:00,24.4,17.3,30.16,WNW,290,1.0,3.0,74,0.00,,,0.00,0,Wunderground v.1.15,2013-03-15 05:08:00,
2013-03-15 01:14:00,24.2,17.4,30.16,WNW,294,1.0,3.0,75,0.00,,,0.00,0,Wunderground v.1.15,2013-03-15 05:14:00,
2013-03-15 01:20:00,24.3,17.2,30.15,WNW,296,1.0,1.0,74,0.00,,,0.00,0,Wunderground v.1.15,2013-03-15 05:20:00,
2013-03-15 01:26:00,24.0,17.5,30.15,WNW,296,1.0,3.0,76,0.00,,,0.00,0,Wunderground v.1.15,2013-03-15 05:26:00,
2013-03-15 01:32:00,23.7,17.2,30.15,WNW,296,1.0,3.0,76,0.00,,,0.00,0,Wunderground v.1.15,2013-03-15 05:32:00,
2013-03-15 01:38:00,23.6,17.1,30.15,WNW,296,1.0,3.0,76,0.00,,,0.00,0,Wunderground v.1.15,2013-03-15 05:38:00,
2013-03-15 01:44:00,23.7,17.2,30.15,WNW,297,1.0,3.0,76,0.00,,,0.00,0,Wunderground v.1.15,2013-03-15 05:44:00,
2013-03-15 01:50:00,23.7,17.2,30.15,WNW,297,1.0,3.0,76,0.00,,,0.00,0,Wunderground v.1.15,2013-03-15 05:50:00,
2013-03-15 01:56:00,23.7,17.2,30.16,NW,310,1.0,3.0,76,0.00,,,0.00,0,Wunderground v.1.15,2013-03-15 05:56:00,
2013-03-15 02:02:00,23.6,17.4,30.16,NW,310,1.0,3.0,77,0.00,,,0.00,0,Wunderground v.1.15,2013-03-15 06:02:00,
2013-03-15 02:08:00,23.7,17.2,30.15,West,265,1.0,3.0,76,0.00,,,0.00,0,Wunderground v.1.15,2013-03-15 06:08:00,
2013-03-15 02:14:00,23.8,17.3,30.15,West,276,1.0,3.0,76,0.00,,,0.00,0,Wunderground v.1.15,2013-03-15 06:14:00,
2013-03-15 02:20:00,23.7,17.2,30.15,West,280,1.0,1.0,76,0.00,,,0.00,0,Wunderground v.1.15,2013-03-15 06:20:00,
2013-03-15 02:26:00,23.4,17.3,30.15,West,280,1.0,3.0,77,0.00,,,0.00,0,Wunderground v.1.15,2013-03-15 06:26:00,
2013-03-15 02:32:00,23.5,17.6,30.15,West,280,1.0,3.0,78,0.00,,,0.00,0,Wunderground v.1.15,2013-03-15 06:32:00,
2013-03-15 02:38:00,23.6,17.7,30.15,WNW,299,1.0,3.0,78,0.00,,,0.00,0,Wunderground v.1.15,2013-03-15 06:38:00,
2013-03-15 02:44:00,23.9,17.7,30.15,WNW,299,1.0,3.0,77,0.00,,,0.00,0,Wunderground v.1.15,2013-03-15 06:44:00,
2013-03-15 02:50:00,24.0,17.8,30.14,WNW,301,1.0,3.0,77,0.00,,,0.00,0,Wunderground v.1.15,2013-03-15 06:50:00,
2013-03-15 02:56:00,23.9,18.3,30.14,WNW,301,0.0,3.0,79,0.00,,,0.00,0,Wunderground v.1.15,2013-03-15 06:56:00,
2013-03-15 03:02:00,24.0,18.1,30.14,WNW,296,1.0,3.0,78,0.00,,,0.00,0,Wunderground v.1.15,2013-03-15 07:02:00,
2013-03-15 03:08:00,23.7,18.1,30.13,WNW,296,0.0,3.0,79,0.00,,,0.00,0,Wunderground v.1.15,2013-03-15 07:08:00,
2013-03-15 03:14:00,23.6,18.0,30.13,WNW,296,0.0,3.0,79,0.00,,,0.00,0,Wunderground v.1.15,2013-03-15 07:14:00,
2013-03-15 03:20:00,23.0,17.7,30.12,WNW,296,0.0,3.0,80,0.00,,,0.00,0,Wunderground v.1.15,2013-03-15 07:20:00,
2013-03-15 03:26:00,22.7,17.7,30.12,WNW,296,0.0,3.0,81,0.00,,,0.00,0,Wunderground v.1.15,2013-03-15 07:26:00,
2013-03-15 03:32:00,22.5,17.8,30.12,WNW,296,1.0,3.0,82,0.00,,,0.00,0,Wunderground v.1.15,2013-03-15 07:32:00,
2013-03-15 03:38:00,22.6,17.9,30.12,WNW,296,1.0,3.0,82,0.00,,,0.00,0,Wunderground v.1.15,2013-03-15 07:38:00,
2013-03-15 03:44:00,22.5,17.8,30.12,WNW,296,1.0,3.0,82,0.00,,,0.00,0,Wunderground v.1.15,2013-03-15 07:44:00,
2013-03-15 03:50:00,22.9,17.9,30.11,West,269,1.0,3.0,81,0.00,,,0.00,0,Wunderground v.1.15,2013-03-15 07:50:00,
2013-03-15 03:56:00,22.4,17.5,30.11,West,269,0.0,3.0,81,0.00,,,0.00,0,Wunderground v.1.15,2013-03-15 07:56:00,
2013-03-15 04:02:00,21.8,17.7,30.11,West,269,0.0,3.0,84,0.00,,,0.00,0,Wunderground v.1.15,2013-03-15 08:02:00,
2013-03-15 04:08:00,21.9,17.8,30.11,West,269,0.0,3.0,84,0.00,,,0.00,0,Wunderground v.1.15,2013-03-15 08:08:00,
2013-03-15 04:14:00,22.1,18.3,30.10,West,269,0.0,3.0,85,0.00,,,0.00,0,Wunderground v.1.15,2013-03-15 08:14:00,
2013-03-15 04:20:00,23.2,18.5,30.10,WNW,296,1.0,3.0,82,0.00,,,0.00,0,Wunderground v.1.15,2013-03-15 08:20:00,
2013-03-15 04:26:00,23.6,18.9,30.10,WNW,296,0.0,3.0,82,0.00,,,0.00,0,Wunderground v.1.15,2013-03-15 08:26:00,
2013-03-15 04:32:00,23.8,19.1,30.09,WNW,296,0.0,3.0,82,0.00,,,0.00,0,Wunderground v.1.15,2013-03-15 08:32:00,
2013-03-15 04:38:00,24.2,18.6,30.09,WNW,296,0.0,3.0,79,0.00,,,0.00,0,Wunderground v.1.15,2013-03-15 08:38:00,
2013-03-15 04:44:00,24.2,18.6,30.09,WNW,296,0.0,3.0,79,0.00,,,0.00,0,Wunderground v.1.15,2013-03-15 08:44:00,
2013-03-15 04:50:00,23.6,18.9,30.08,WNW,296,0.0,3.0,82,0.00,,,0.00,0,Wunderground v.1.15,2013-03-15 08:50:00,
2013-03-15 04:56:00,23.3,18.6,30.08,WNW,297,0.0,3.0,82,0.00,,,0.00,0,Wunderground v.1.15,2013-03-15 08:56:00,
2013-03-15 05:02:00,24.0,18.4,30.08,WNW,297,0.0,3.0,79,0.00,,,0.00,0,Wunderground v.1.15,2013-03-15 09:02:00,
2013-03-15 05:08:00,24.2,18.3,30.08,WNW,297,0.0,3.0,78,0.00,,,0.00,0,Wunderground v.1.15,2013-03-15 09:08:00,
2013-03-15 05:14:00,23.3,18.3,30.08,WNW,297,0.0,3.0,81,0.00,,,0.00,0,Wunderground v.1.15,2013-03-15 09:14:00,
2013-03-15 05:20:00,23.6,18.6,30.08,WNW,297,0.0,3.0,81,0.00,,,0.00,0,Wunderground v.1.15,2013-03-15 09:20:00,
2013-03-15 05:26:00,23.5,18.5,30.07,WNW,297,0.0,3.0,81,0.00,,,0.00,0,Wunderground v.1.15,2013-03-15 09:26:00,
2013-03-15 05:32:00,22.7,18.3,30.07,WNW,297,0.0,3.0,83,0.00,,,0.00,0,Wunderground v.1.15,2013-03-15 09:32:00,
2013-03-15 05:38:00,22.2,18.4,30.07,WNW,297,0.0,3.0,85,0.00,,,0.00,0,Wunderground v.1.15,2013-03-15 09:38:00,
2013-03-15 05:44:00,22.6,18.8,30.07,WNW,297,0.0,3.0,85,0.00,,,0.00,0,Wunderground v.1.15,2013-03-15 09:44:00,
2013-03-15 05:50:00,22.5,18.7,30.07,WNW,297,0.0,3.0,85,0.00,,,0.00,0,Wunderground v.1.15,2013-03-15 09:50:00,
2013-03-15 05:56:00,22.2,18.7,30.07,WNW,297,0.0,3.0,86,0.00,,,0.00,0,Wunderground v.1.15,2013-03-15 09:56:00,
2013-03-15 06:02:00,22.2,18.7,30.07,WNW,297,0.0,3.0,86,0.00,,,0.00,0,Wunderground v.1.15,2013-03-15 10:02:00,
2013-03-15 06:08:00,22.2,18.7,30.07,WNW,297,0.0,3.0,86,0.00,,,0.00,0,Wunderground v.1.15,2013-03-15 10:08:00,
2013-03-15 06:14:00,22.7,19.1,30.07,WNW,297,0.0,3.0,86,0.00,,,0.00,0,Wunderground v.1.15,2013-03-15 10:14:00,
2013-03-15 06:20:00,22.9,19.1,30.07,WNW,297,0.0,3.0,85,0.00,,,0.00,0,Wunderground v.1.15,2013-03-15 10:20:00,
2013-03-15 06:27:00,23.0,19.4,30.07,WNW,297,0.0,3.0,86,0.00,,,0.00,0,Wunderground v.1.15,2013-03-15 10:27:00,
2013-03-15 06:32:00,23.6,19.8,30.06,WNW,297,0.0,3.0,85,0.00,,,0.00,0,Wunderground v.1.15,2013-03-15 10:32:00,
2013-03-15 06:38:00,23.7,19.9,30.06,WNW,297,0.0,3.0,85,0.00,,,0.00,0,Wunderground v.1.15,2013-03-15 10:38:00,
2013-03-15 06:44:00,24.0,20.1,30.06,WNW,297,0.0,3.0,85,0.00,,,0.00,0,Wunderground v.1.15,2013-03-15 10:44:00,
2013-03-15 06:50:00,24.3,20.2,30.06,WNW,297,0.0,3.0,84,0.00,,,0.00,0,Wunderground v.1.15,2013-03-15 10:50:00,
2013-03-15 06:56:00,24.6,20.5,30.06,WNW,297,0.0,3.0,84,0.00,,,0.00,0,Wunderground v.1.15,2013-03-15 10:56:00,
2013-03-15 07:02:00,24.9,20.2,30.05,WNW,297,0.0,3.0,82,0.00,,,0.00,0,Wunderground v.1.15,2013-03-15 11:02:00,
2013-03-15 07:08:00,25.6,20.6,30.06,WNW,297,0.0,3.0,81,0.00,,,0.00,0,Wunderground v.1.15,2013-03-15 11:08:00,
2013-03-15 07:14:00,25.9,20.6,30.05,WNW,297,0.0,3.0,80,0.00,,,0.00,0,Wunderground v.1.15,2013-03-15 11:14:00,
2013-03-15 07:20:00,26.2,20.9,30.05,WNW,297,0.0,3.0,80,0.00,,,0.00,0,Wunderground v.1.15,2013-03-15 11:20:00,
2013-03-15 07:26:00,26.3,21.0,30.05,WNW,297,0.0,3.0,80,0.00,,,0.00,0,Wunderground v.1.15,2013-03-15 11:26:00,
2013-03-15 07:32:00,26.1,21.1,30.05,WNW,297,0.0,3.0,81,0.00,,,0.00,5,Wunderground v.1.15,2013-03-15 11:32:00,
2013-03-15 07:38:00,26.3,21.0,30.04,WNW,297,0.0,3.0,80,0.00,,,0.00,11,Wunderground v.1.15,2013-03-15 11:38:00,
2013-03-15 07:44:00,26.5,21.2,30.04,WNW,297,0.0,3.0,80,0.00,,,0.00,18,Wunderground v.1.15,2013-03-15 11:44:00,
2013-03-15 07:50:00,26.6,21.6,30.04,WNW,297,0.0,3.0,81,0.00,,,0.00,23,Wunderground v.1.15,2013-03-15 11:50:00,
2013-03-15 07:56:00,26.9,21.6,30.03,WNW,297,0.0,3.0,80,0.00,,,0.00,28,Wunderground v.1.15,2013-03-15 11:56:00,
2013-03-15 08:02:00,27.4,22.0,30.04,WNW,297,0.0,3.0,80,0.00,,,0.00,39,Wunderground v.1.15,2013-03-15 12:02:00,
2013-03-15 08:08:00,27.6,21.9,30.03,WNW,297,0.0,3.0,79,0.00,,,0.00,39,Wunderground v.1.15,2013-03-15 12:08:00,
2013-03-15 08:14:00,28.0,22.3,30.04,WNW,285,0.0,3.0,79,0.00,,,0.00,30,Wunderground v.1.15,2013-03-15 12:14:00,
2013-03-15 08:20:00,28.3,22.3,30.03,West,268,0.0,3.0,78,0.00,,,0.00,32,Wunderground v.1.15,2013-03-15 12:20:00,
2013-03-15 08:26:00,28.6,22.6,30.03,West,269,0.0,3.0,78,0.00,,,0.00,28,Wunderground v.1.15,2013-03-15 12:26:00,
2013-03-15 08:32:00,28.9,22.6,30.03,SW,230,0.0,3.0,77,0.00,,,0.00,30,Wunderground v.1.15,2013-03-15 12:32:00,
2013-03-15 08:38:00,29.1,22.8,30.03,SSW,211,1.0,3.0,77,0.00,,,0.00,39,Wunderground v.1.15,2013-03-15 12:38:00,
2013-03-15 08:44:00,29.4,23.1,30.03,WSW,239,1.0,3.0,77,0.00,,,0.00,47,Wunderground v.1.15,2013-03-15 12:44:00,
2013-03-15 08:50:00,29.8,22.8,30.02,SSW,196,1.0,1.0,75,0.00,,,0.00,49,Wunderground v.1.15,2013-03-15 12:50:00,
2013-03-15 08:56:00,30.2,22.9,30.02,SSE,166,2.0,4.0,74,0.00,,,0.00,51,Wunderground v.1.15,2013-03-15 12:56:00,
2013-03-15 09:02:00,30.5,23.2,30.02,South,180,1.0,2.0,74,0.00,,,0.00,46,Wunderground v.1.15,2013-03-15 13:02:00,
2013-03-15 09:08:00,30.9,22.9,30.02,SW,226,1.0,6.0,72,0.00,,,0.00,60,Wunderground v.1.15,2013-03-15 13:08:00,
2013-03-15 09:14:00,31.2,22.9,30.01,WSW,246,3.0,4.0,71,0.00,,,0.00,49,Wunderground v.1.15,2013-03-15 13:14:00,
2013-03-15 09:20:00,31.5,22.8,30.01,SW,214,4.0,4.0,70,0.00,,,0.00,54,Wunderground v.1.15,2013-03-15 13:20:00,
2013-03-15 09:26:00,31.6,22.9,30.01,SW,219,2.0,4.0,70,0.00,,,0.00,58,Wunderground v.1.15,2013-03-15 13:26:00,
2013-03-15 09:32:00,31.8,23.1,30.01,SSW,203,2.0,3.0,70,0.00,,,0.00,58,Wunderground v.1.15,2013-03-15 13:32:00,
2013-03-15 09:38:00,32.0,23.3,30.00,West,263,3.0,3.0,70,0.00,,,0.00,70,Wunderground v.1.15,2013-03-15 13:38:00,
2013-03-15 09:44:00,32.1,23.4,30.00,SW,222,3.0,7.0,70,0.00,,,0.00,74,Wunderground v.1.15,2013-03-15 13:44:00,
2013-03-15 09:50:00,32.3,23.6,30.00,SE,135,3.0,3.0,70,0.00,,,0.00,88,Wunderground v.1.15,2013-03-15 13:50:00,
2013-03-15 09:56:00,32.6,23.6,30.00,SW,225,3.0,4.0,69,0.00,,,0.00,93,Wunderground v.1.15,2013-03-15 13:56:00,
2013-03-15 10:02:00,32.7,23.6,29.99,West,261,3.0,3.0,69,0.00,,,0.00,95,Wunderground v.1.15,2013-03-15 14:02:00,
2013-03-15 10:08:00,32.9,23.5,29.99,SW,225,4.0,7.0,68,0.00,,,0.00,123,Wunderground v.1.15,2013-03-15 14:08:00,
2013-03-15 10:14:00,33.1,23.7,29.99,South,172,4.0,7.0,68,0.00,,,0.00,120,Wunderground v.1.15,2013-03-15 14:14:00,
2013-03-15 10:20:00,33.2,23.8,29.99,West,269,5.0,5.0,68,0.00,,,0.00,113,Wunderground v.1.15,2013-03-15 14:20:00,
2013-03-15 10:26:00,33.4,24.0,29.99,WSW,244,5.0,6.0,68,0.00,,,0.00,123,Wunderground v.1.15,2013-03-15 14:26:00,
2013-03-15 10:32:00,33.7,23.9,29.98,West,264,4.0,4.0,67,0.00,,,0.00,116,Wunderground v.1.15,2013-03-15 14:32:00,
2013-03-15 10:38:00,33.9,24.1,29.98,SW,229,4.0,4.0,67,0.00,,,0.00,149,Wunderground v.1.15,2013-03-15 14:38:00,
2013-03-15 10:44:00,34.2,24.4,29.98,SW,222,6.0,8.0,67,0.00,,,0.00,185,Wunderground v.1.15,2013-03-15 14:44:00,
2013-03-15 10:50:00,34.4,24.2,29.98,SSW,211,5.0,5.0,66,0.00,,,0.00,158,Wunderground v.1.15,2013-03-15 14:50:00,
2013-03-15 10:56:00,34.6,24.4,29.98,WSW,250,5.0,5.0,66,0.00,,,0.00,165,Wunderground v.1.15,2013-03-15 14:56:00,
2013-03-15 11:02:00,35.0,24.8,29.97,West,259,4.0,5.0,66,0.00,,,0.00,162,Wunderground v.1.15,2013-03-15 15:02:00,
2013-03-15 11:08:00,35.2,24.6,29.97,SSW,200,4.0,5.0,65,0.00,,,0.00,181,Wunderground v.1.15,2013-03-15 15:08:00,
2013-03-15 11:14:00,35.6,25.4,29.97,SW,225,4.0,8.0,66,0.00,,,0.00,144,Wunderground v.1.15,2013-03-15 15:14:00,
2013-03-15 11:20:00,35.7,25.1,29.97,SSW,192,4.0,4.0,65,0.00,,,0.00,156,Wunderground v.1.15,2013-03-15 15:20:00,
2013-03-15 11:26:00,35.7,25.4,29.97,SW,223,6.0,10.0,66,0.00,,,0.00,197,Wunderground v.1.15,2013-03-15 15:26:00,
2013-03-15 11:32:00,35.9,25.6,29.97,SSW,212,7.0,7.0,66,0.00,,,0.00,237,Wunderground v.1.15,2013-03-15 15:32:00,
2013-03-15 11:38:00,36.2,25.9,29.96,SW,234,6.0,7.0,66,0.00,,,0.00,250,Wunderground v.1.15,2013-03-15 15:38:00,
2013-03-15 11:44:00,36.6,26.3,29.96,WSW,240,5.0,10.0,66,0.00,,,0.00,323,Wunderground v.1.15,2013-03-15 15:44:00,
2013-03-15 11:50:00,37.3,26.6,29.96,SW,227,5.0,9.0,65,0.00,,,0.00,425,Wunderground v.1.15,2013-03-15 15:50:00,
2013-03-15 11:56:00,37.7,26.6,29.95,WNW,288,5.0,9.0,64,0.00,,,0.00,262,Wunderground v.1.15,2013-03-15 15:56:00,
2013-03-15 12:02:00,38.0,27.3,29.95,West,269,5.0,5.0,65,0.00,,,0.00,283,Wunderground v.1.15,2013-03-15 16:02:00,
2013-03-15 12:08:00,38.6,27.5,29.94,WSW,248,5.0,9.0,64,0.00,,,0.00,341,Wunderground v.1.15,2013-03-15 16:08:00,
2013-03-15 12:14:00,38.5,27.4,29.94,WSW,242,7.0,7.0,64,0.00,,,0.00,278,Wunderground v.1.15,2013-03-15 16:14:00,
2013-03-15 12:20:00,38.7,27.9,29.94,SSW,197,7.0,17.0,65,0.00,,,0.00,371,Wunderground v.1.15,2013-03-15 16:20:00,
2013-03-15 12:26:00,38.7,27.9,29.93,SW,223,7.0,17.0,65,0.00,,,0.00,383,Wunderground v.1.15,2013-03-15 16:26:00,
2013-03-15 12:32:00,38.7,27.9,29.93,West,279,8.0,10.0,65,0.00,,,0.00,345,Wunderground v.1.15,2013-03-15 16:32:00,
2013-03-15 12:38:00,39.3,28.1,29.93,WSW,242,6.0,10.0,64,0.00,,,0.00,371,Wunderground v.1.15,2013-03-15 16:38:00,
2013-03-15 12:44:00,39.5,28.3,29.93,SSW,208,7.0,9.0,64,0.00,,,0.00,339,Wunderground v.1.15,2013-03-15 16:44:00,
2013-03-15 12:50:00,40.0,29.2,29.92,NW,315,7.0,7.0,65,0.00,,,0.00,404,Wunderground v.1.15,2013-03-15 16:50:00,
2013-03-15 12:56:00,39.6,28.4,29.92,WNW,302,8.0,10.0,64,0.00,,,0.00,380,Wunderground v.1.15,2013-03-15 16:56:00,
2013-03-15 13:02:00,39.6,28.8,29.92,WSW,237,9.0,10.0,65,0.00,,,0.00,311,Wunderground v.1.15,2013-03-15 17:02:00,
2013-03-15 13:08:00,39.7,28.9,29.91,West,272,8.0,12.0,65,0.00,,,0.00,446,Wunderground v.1.15,2013-03-15 17:08:00,
2013-03-15 13:14:00,39.7,28.9,29.91,SSW,211,7.0,8.0,65,0.00,,,0.00,418,Wunderground v.1.15,2013-03-15 17:14:00,
2013-03-15 13:20:00,41.0,29.7,29.91,WNW,288,5.0,5.0,64,0.00,,,0.00,390,Wunderground v.1.15,2013-03-15 17:20:00,
2013-03-15 13:26:00,40.6,29.4,29.91,West,269,6.0,12.0,64,0.00,,,0.00,287,Wunderground v.1.15,2013-03-15 17:26:00,
2013-03-15 13:32:00,40.7,29.8,29.91,WNW,284,6.0,8.0,65,0.00,,,0.00,218,Wunderground v.1.15,2013-03-15 17:32:00,
2013-03-15 13:38:00,40.8,29.9,29.91,SW,225,5.0,8.0,65,0.00,,,0.00,236,Wunderground v.1.15,2013-03-15 17:38:00,
2013-03-15 13:44:00,41.0,30.1,29.90,NNW,340,5.0,11.0,65,0.00,,,0.00,243,Wunderground v.1.15,2013-03-15 17:44:00,
2013-03-15 13:50:00,41.2,30.3,29.90,SSW,210,6.0,8.0,65,0.00,,,0.00,236,Wunderground v.1.15,2013-03-15 17:50:00,
2013-03-15 13:56:00,41.2,30.7,29.89,SW,228,7.0,9.0,66,0.00,,,0.00,267,Wunderground v.1.15,2013-03-15 17:56:00,
2013-03-15 14:02:00,41.4,30.5,29.89,SW,217,8.0,17.0,65,0.00,,,0.00,346,Wunderground v.1.15,2013-03-15 18:02:00,
2013-03-15 14:08:00,42.0,30.7,29.89,SW,221,10.0,17.0,64,0.00,,,0.00,304,Wunderground v.1.15,2013-03-15 18:08:00,
2013-03-15 14:14:00,42.0,30.7,29.88,WNW,301,7.0,11.0,64,0.00,,,0.00,290,Wunderground v.1.15,2013-03-15 18:14:00,
2013-03-15 14:20:00,42.5,30.8,29.88,WNW,290,7.0,7.0,63,0.00,,,0.00,264,Wunderground v.1.15,2013-03-15 18:20:00,
2013-03-15 14:26:00,42.6,30.9,29.88,WNW,292,7.0,12.0,63,0.00,,,0.00,346,Wunderground v.1.15,2013-03-15 18:26:00,
2013-03-15 14:32:00,42.7,30.6,29.87,NNW,336,9.0,9.0,62,0.00,,,0.00,290,Wunderground v.1.15,2013-03-15 18:32:00,
2013-03-15 14:38:00,43.4,31.2,29.87,West,263,8.0,9.0,62,0.00,,,0.00,290,Wunderground v.1.15,2013-03-15 18:38:00,
2013-03-15 14:44:00,43.1,30.6,29.87,West,273,8.0,11.0,61,0.00,,,0.00,214,Wunderground v.1.15,2013-03-15 18:44:00,
2013-03-15 14:50:00,42.7,30.6,29.87,WSW,246,8.0,8.0,62,0.00,,,0.00,294,Wunderground v.1.15,2013-03-15 18:50:00,
2013-03-15 14:56:00,42.8,30.7,29.86,West,271,7.0,8.0,62,0.00,,,0.00,230,Wunderground v.1.15,2013-03-15 18:56:00,
2013-03-15 15:02:00,43.0,30.9,29.86,SW,236,7.0,7.0,62,0.00,,,0.00,243,Wunderground v.1.15,2013-03-15 19:02:00,
2013-03-15 15:08:00,43.1,31.4,29.87,SW,221,7.0,7.0,63,0.00,,,0.00,204,Wunderground v.1.15,2013-03-15 19:08:00,
2013-03-15 15:14:00,42.9,30.8,29.86,SSW,213,6.0,10.0,62,0.00,,,0.00,181,Wunderground v.1.15,2013-03-15 19:14:00,
2013-03-15 15:20:00,43.1,31.0,29.86,SW,226,6.0,6.0,62,0.00,,,0.00,179,Wunderground v.1.15,2013-03-15 19:20:00,
2013-03-15 15:26:00,43.1,31.0,29.86,WNW,290,6.0,7.0,62,0.00,,,0.00,160,Wunderground v.1.15,2013-03-15 19:26:00,
2013-03-15 15:32:00,43.5,31.7,29.86,NNW,331,5.0,5.0,63,0.00,,,0.00,178,Wunderground v.1.15,2013-03-15 19:32:00,
2013-03-15 15:38:00,43.3,31.1,29.86,WSW,256,6.0,11.0,62,0.00,,,0.00,206,Wunderground v.1.15,2013-03-15 19:38:00,
2013-03-15 15:44:00,43.2,30.6,29.86,WNW,297,7.0,7.0,61,0.00,,,0.00,179,Wunderground v.1.15,2013-03-15 19:44:00,
2013-03-15 15:50:00,43.1,30.6,29.86,West,279,8.0,9.0,61,0.00,,,0.00,121,Wunderground v.1.15,2013-03-15 19:50:00,
2013-03-15 15:56:00,43.0,30.5,29.86,WSW,245,8.0,11.0,61,0.00,,,0.00,171,Wunderground v.1.15,2013-03-15 19:56:00,
2013-03-15 16:02:00,43.0,30.5,29.86,WSW,242,6.0,7.0,61,0.00,,,0.00,132,Wunderground v.1.15,2013-03-15 20:02:00,
2013-03-15 16:08:00,43.0,30.9,29.86,WSW,244,6.0,8.0,62,0.00,,,0.00,148,Wunderground v.1.15,2013-03-15 20:08:00,
2013-03-15 16:14:00,42.8,30.7,29.86,West,279,8.0,15.0,62,0.00,,,0.00,130,Wunderground v.1.15,2013-03-15 20:14:00,
2013-03-15 16:20:00,42.8,30.7,29.86,NW,307,8.0,8.0,62,0.00,,,0.00,121,Wunderground v.1.15,2013-03-15 20:20:00,
2013-03-15 16:26:00,42.8,30.7,29.86,West,260,7.0,10.0,62,0.00,,,0.00,116,Wunderground v.1.15,2013-03-15 20:26:00,
2013-03-15 16:32:00,42.8,30.7,29.86,West,267,6.0,9.0,62,0.00,,,0.00,105,Wunderground v.1.15,2013-03-15 20:32:00,
2013-03-15 16:38:00,42.8,30.7,29.86,SW,236,7.0,9.0,62,0.00,,,0.00,105,Wunderground v.1.15,2013-03-15 20:38:00,
2013-03-15 16:44:00,42.9,30.4,29.86,SW,222,8.0,8.0,61,0.00,,,0.00,137,Wunderground v.1.15,2013-03-15 20:44:00,
2013-03-15 16:50:00,43.0,30.9,29.85,WNW,297,7.0,8.0,62,0.00,,,0.00,141,Wunderground v.1.15,2013-03-15 20:50:00,
2013-03-15 16:56:00,43.2,30.6,29.86,West,272,5.0,10.0,61,0.00,,,0.00,121,Wunderground v.1.15,2013-03-15 20:56:00,
2013-03-15 17:02:00,43.3,31.1,29.86,West,280,6.0,6.0,62,0.00,,,0.00,132,Wunderground v.1.15,2013-03-15 21:02:00,
2013-03-15 17:08:00,43.3,30.7,29.85,WSW,245,5.0,8.0,61,0.00,,,0.00,90,Wunderground v.1.15,2013-03-15 21:08:00,
2013-03-15 17:14:00,43.3,30.7,29.85,WSW,244,6.0,6.0,61,0.00,,,0.00,95,Wunderground v.1.15,2013-03-15 21:14:00,
2013-03-15 17:20:00,43.3,31.1,29.85,SW,236,5.0,7.0,62,0.00,,,0.00,69,Wunderground v.1.15,2013-03-15 21:20:00,
2013-03-15 17:26:00,43.3,30.7,29.85,NNW,328,4.0,7.0,61,0.00,,,0.00,72,Wunderground v.1.15,2013-03-15 21:26:00,
2013-03-15 17:32:00,43.3,31.1,29.85,SW,236,4.0,12.0,62,0.00,,,0.00,69,Wunderground v.1.15,2013-03-15 21:32:00,
2013-03-15 17:38:00,43.3,30.7,29.85,WSW,257,6.0,12.0,61,0.00,,,0.00,72,Wunderground v.1.15,2013-03-15 21:38:00,
2013-03-15 17:44:00,43.3,31.1,29.85,North,355,6.0,11.0,62,0.00,,,0.00,53,Wunderground v.1.15,2013-03-15 21:44:00,
2013-03-15 17:50:00,43.2,31.1,29.85,NW,306,5.0,5.0,62,0.00,,,0.00,44,Wunderground v.1.15,2013-03-15 21:50:00,
2013-03-15 17:56:00,43.1,31.0,29.85,NW,318,4.0,5.0,62,0.00,,,0.00,42,Wunderground v.1.15,2013-03-15 21:56:00,
2013-03-15 18:02:00,43.1,31.0,29.85,West,275,5.0,5.0,62,0.00,,,0.00,39,Wunderground v.1.15,2013-03-15 22:02:00,
2013-03-15 18:08:00,43.0,30.9,29.85,NW,313,5.0,5.0,62,0.00,,,0.00,35,Wunderground v.1.15,2013-03-15 22:08:00,
2013-03-15 18:14:00,42.9,30.8,29.85,West,262,5.0,6.0,62,0.00,,,0.00,33,Wunderground v.1.15,2013-03-15 22:14:00,
2013-03-15 18:20:00,42.8,31.1,29.86,West,262,4.0,4.0,63,0.00,,,0.00,33,Wunderground v.1.15,2013-03-15 22:20:00,
2013-03-15 18:26:00,42.7,31.0,29.86,WNW,292,4.0,5.0,63,0.00,,,0.00,21,Wunderground v.1.15,2013-03-15 22:26:00,
2013-03-15 18:32:00,42.7,31.0,29.86,WNW,286,3.0,4.0,63,0.00,,,0.00,14,Wunderground v.1.15,2013-03-15 22:32:00,
2013-03-15 18:38:00,42.6,31.3,29.86,SW,215,4.0,5.0,64,0.00,,,0.00,16,Wunderground v.1.15,2013-03-15 22:38:00,
2013-03-15 18:44:00,42.5,31.2,29.87,SW,235,4.0,6.0,64,0.00,,,0.00,12,Wunderground v.1.15,2013-03-15 22:44:00,
2013-03-15 18:50:00,42.4,31.1,29.87,SW,218,4.0,6.0,64,0.00,,,0.00,11,Wunderground v.1.15,2013-03-15 22:50:00,
2013-03-15 18:56:00,42.4,31.5,29.87,West,259,4.0,6.0,65,0.00,,,0.00,7,Wunderground v.1.15,2013-03-15 22:56:00,
2013-03-15 19:02:00,42.3,31.4,29.87,WSW,241,4.0,4.0,65,0.00,,,0.00,0,Wunderground v.1.15,2013-03-15 23:02:00,
2013-03-15 19:08:00,42.2,31.3,29.87,WNW,302,4.0,10.0,65,0.00,,,0.00,0,Wunderground v.1.15,2013-03-15 23:08:00,
2013-03-15 19:14:00,42.2,31.3,29.88,SSW,211,4.0,5.0,65,0.00,,,0.00,0,Wunderground v.1.15,2013-03-15 23:14:00,
2013-03-15 19:20:00,42.0,31.5,29.88,WNW,290,3.0,3.0,66,0.00,,,0.00,0,Wunderground v.1.15,2013-03-15 23:20:00,
2013-03-15 19:26:00,42.0,31.5,29.88,WNW,296,3.0,3.0,66,0.00,,,0.00,0,Wunderground v.1.15,2013-03-15 23:26:00,
2013-03-15 19:32:00,41.8,31.3,29.88,SW,225,2.0,3.0,66,0.00,,,0.00,0,Wunderground v.1.15,2013-03-15 23:32:00,
2013-03-15 19:38:00,41.8,31.6,29.88,WNW,297,2.0,3.0,67,0.00,,,0.00,0,Wunderground v.1.15,2013-03-15 23:38:00,
2013-03-15 19:44:00,41.7,31.5,29.89,WSW,245,4.0,9.0,67,0.00,,,0.00,0,Wunderground v.1.15,2013-03-15 23:44:00,
2013-03-15 19:50:00,41.7,31.5,29.89,WNW,286,4.0,4.0,67,0.00,,,0.00,0,Wunderground v.1.15,2013-03-15 23:50:00,
2013-03-15 19:56:00,41.6,31.8,29.89,WSW,243,4.0,4.0,68,0.00,,,0.00,0,Wunderground v.1.15,2013-03-15 23:56:00,
2013-03-15 20:02:00,41.4,31.6,29.89,WSW,239,3.0,3.0,68,0.00,,,0.00,0,Wunderground v.1.15,2013-03-16 00:02:00,
2013-03-15 20:08:00,41.1,32.1,29.90,WNW,288,2.0,6.0,70,0.00,,,0.00,0,Wunderground v.1.15,2013-03-16 00:08:00,
2013-03-15 20:14:00,40.9,32.2,29.90,WNW,288,5.0,13.0,71,0.00,,,0.00,0,Wunderground v.1.15,2013-03-16 00:14:00,
2013-03-15 20:20:00,40.7,32.7,29.91,West,281,5.0,6.0,73,0.00,,,0.00,0,Wunderground v.1.15,2013-03-16 00:20:00,
2013-03-15 20:26:00,40.4,32.8,29.90,WNW,303,5.0,6.0,74,0.00,,,0.00,0,Wunderground v.1.15,2013-03-16 00:26:00,
2013-03-15 20:32:00,40.0,33.0,29.91,NW,323,5.0,6.0,76,0.00,,,0.00,0,Wunderground v.1.15,2013-03-16 00:32:00,
2013-03-15 20:38:00,39.8,32.8,29.91,NW,314,3.0,6.0,76,0.00,,,0.00,0,Wunderground v.1.15,2013-03-16 00:38:00,
2013-03-15 20:44:00,39.5,32.9,29.91,NW,326,2.0,3.0,77,0.00,,,0.00,0,Wunderground v.1.15,2013-03-16 00:44:00,
2013-03-15 20:50:00,39.2,32.6,29.92,NW,323,3.0,3.0,77,0.00,,,0.00,0,Wunderground v.1.15,2013-03-16 00:50:00,
2013-03-15 20:56:00,38.9,32.6,29.92,WNW,300,3.0,4.0,78,0.00,,,0.00,0,Wunderground v.1.15,2013-03-16 00:56:00,
2013-03-15 21:02:00,38.5,32.6,29.92,WNW,286,3.0,4.0,79,0.00,,,0.00,0,Wunderground v.1.15,2013-03-16 01:02:00,
2013-03-15 21:08:00,38.3,32.7,29.92,WNW,296,3.0,4.0,80,0.00,,,0.00,0,Wunderground v.1.15,2013-03-16 01:08:00,
2013-03-15 21:14:00,38.1,32.5,29.92,WNW,284,2.0,5.0,80,0.00,,,0.00,0,Wunderground v.1.15,2013-03-16 01:14:00,
2013-03-15 21:20:00,37.8,32.5,29.92,WNW,294,2.0,4.0,81,0.00,,,0.00,0,Wunderground v.1.15,2013-03-16 01:20:00,
2013-03-15 21:27:00,37.7,32.4,29.92,WNW,293,3.0,6.0,81,0.00,,,0.00,0,Wunderground v.1.15,2013-03-16 01:27:00,
2013-03-15 21:32:00,37.6,32.3,29.92,WNW,300,3.0,5.0,81,0.00,,,0.00,0,Wunderground v.1.15,2013-03-16 01:32:00,
2013-03-15 21:38:00,37.4,32.1,29.92,WNW,291,3.0,5.0,81,0.00,,,0.00,0,Wunderground v.1.15,2013-03-16 01:38:00,
2013-03-15 21:44:00,37.3,32.0,29.92,NW,315,2.0,3.0,81,0.00,,,0.00,0,Wunderground v.1.15,2013-03-16 01:44:00,
2013-03-15 21:50:00,37.1,31.8,29.92,WNW,293,1.0,1.0,81,0.00,,,0.00,0,Wunderground v.1.15,2013-03-16 01:50:00,
2013-03-15 21:56:00,36.9,31.9,29.92,WNW,293,1.0,3.0,82,0.00,,,0.00,0,Wunderground v.1.15,2013-03-16 01:56:00,
2013-03-15 22:02:00,36.8,32.1,29.92,NW,306,0.0,2.0,83,0.00,,,0.00,0,Wunderground v.1.15,2013-03-16 02:02:00,
2013-03-15 22:08:00,36.7,32.0,29.92,NW,304,1.0,3.0,83,0.00,,,0.00,0,Wunderground v.1.15,2013-03-16 02:08:00,
2013-03-15 22:14:00,36.5,31.8,29.92,NW,304,1.0,3.0,83,0.00,,,0.00,0,Wunderground v.1.15,2013-03-16 02:14:00,
2013-03-15 22:20:00,36.4,32.0,29.92,NW,304,0.0,3.0,84,0.00,,,0.00,0,Wunderground v.1.15,2013-03-16 02:20:00,
2013-03-15 22:26:00,36.3,31.9,29.93,NW,304,0.0,3.0,84,0.00,,,0.00,0,Wunderground v.1.15,2013-03-16 02:26:00,
2013-03-15 22:32:00,36.2,31.8,29.92,NW,306,0.0,3.0,84,0.00,,,0.00,0,Wunderground v.1.15,2013-03-16 02:32:00,
2013-03-15 22:38:00,36.1,31.7,29.92,NNE,26,1.0,3.0,84,0.00,,,0.00,0,Wunderground v.1.15,2013-03-16 02:38:00,
2013-03-15 22:44:00,35.8,31.4,29.92,West,279,1.0,4.0,84,0.00,,,0.00,0,Wunderground v.1.15,2013-03-16 02:44:00,
2013-03-15 22:50:00,35.5,31.4,29.92,WNW,300,1.0,3.0,85,0.00,,,0.00,0,Wunderground v.1.15,2013-03-16 02:50:00,
2013-03-15 22:56:00,35.2,31.4,29.92,WSW,252,2.0,3.0,86,0.00,,,0.00,0,Wunderground v.1.15,2013-03-16 02:56:00,
2013-03-15 23:02:00,34.8,31.3,29.92,WSW,257,1.0,2.0,87,0.00,,,0.00,0,Wunderground v.1.15,2013-03-16 03:02:00,
2013-03-15 23:08:00,34.6,31.4,29.92,WSW,257,1.0,3.0,88,0.00,,,0.00,0,Wunderground v.1.15,2013-03-16 03:08:00,
2013-03-15 23:14:00,34.3,31.4,29.92,WSW,257,0.0,3.0,89,0.00,,,0.00,0,Wunderground v.1.15,2013-03-16 03:14:00,
2013-03-15 23:20:00,34.1,31.5,29.92,WSW,257,0.0,3.0,90,0.00,,,0.00,0,Wunderground v.1.15,2013-03-16 03:20:00,
2013-03-15 23:26:00,34.0,31.4,29.92,WSW,257,0.0,3.0,90,0.00,,,0.00,0,Wunderground v.1.15,2013-03-16 03:26:00,
2013-03-15 23:32:00,33.9,31.6,29.92,WSW,257,0.0,3.0,91,0.00,,,0.00,0,Wunderground v.1.15,2013-03-16 03:32:00,
2013-03-15 23:38:00,33.7,31.6,29.92,WSW,257,0.0,3.0,92,0.00,,,0.00,0,Wunderground v.1.15,2013-03-16 03:38:00,
2013-03-15 23:44:00,33.7,31.6,29.92,WSW,257,0.0,3.0,92,0.00,,,0.00,0,Wunderground v.1.15,2013-03-16 03:44:00,
2013-03-15 23:50:00,33.7,31.6,29.92,WSW,257,0.0,3.0,92,0.00,,,0.00,0,Wunderground v.1.15,2013-03-16 03:50:00,
2013-03-15 23:57:00,33.6,31.8,29.91,WSW,257,0.0,3.0,93,0.00,,,0.00,0,Wunderground v.1.15,2013-03-16 03:57:00,